Main page
METAR-TAF:

METAR-TAF

Airports :

Laconia Municipal Airport

Laconia, New Hampshire, United States

latitude: 43-34N, longitude: 071-25W, elevation: 544 ft

Current weather observation

The report was made 57 minutes ago, at 06:56 UTC
Wind 8 mph from the West with gusts up to 18 mph
Temperature 57°F
Humidity 63%
Pressure 29.70 in. Hg
Visibility: 10 miles
Few clouds at a height of 5000 ft

METAR: KLCI 210656Z AUTO 26007G16KT 10SM FEW050 14/07 A2970 RMK AO2 SLP053 T01390067

Time: 03:53 (07:53 UTC)


TAF: missing

Weather observations and forecasts of more than 4000 airports (METAR and TAF reports).

The available stations are represented by yellow and red dots on the map.

Hover mouse over dot to see the name of the station.

Then click to see weather observations and forecasts.

To change the map : click on the green buttons with a black cross to zoom in, on the green button with a dash to zoom out, or on the green arrows for adjacent maps.


METAR-TAF: